sensor_id;sensor_type;location;lat;lon;timestamp;noise_LAeq;noise_LA_min;noise_LA_max;noise_LA01;noise_LA95
45478;Laerm;31227;47.986;11.868;2022-07-15T00:00:04;37.90;33.44;44.35;;
45478;Laerm;31227;47.986;11.868;2022-07-15T00:02:30;38.65;33.90;47.76;;
45478;Laerm;31227;47.986;11.868;2022-07-15T00:04:55;37.95;34.31;41.38;;
45478;Laerm;31227;47.986;11.868;2022-07-15T00:07:20;37.87;33.44;40.62;;
45478;Laerm;31227;47.986;11.868;2022-07-15T00:09:45;37.86;33.44;40.43;;
45478;Laerm;31227;47.986;11.868;2022-07-15T00:12:29;37.85;33.90;40.13;;
45478;Laerm;31227;47.986;11.868;2022-07-15T00:14:54;39.43;33.90;54.58;;
45478;Laerm;31227;47.986;11.868;2022-07-15T00:17:20;38.51;34.31;49.15;;
45478;Laerm;31227;47.986;11.868;2022-07-15T00:19:45;37.83;33.90;40.53;;
45478;Laerm;31227;47.986;11.868;2022-07-15T00:22:10;37.84;33.90;40.33;;
45478;Laerm;31227;47.986;11.868;2022-07-15T00:24:36;37.84;34.31;40.33;;
45478;Laerm;31227;47.986;11.868;2022-07-15T00:27:01;37.86;32.35;40.33;;
45478;Laerm;31227;47.986;11.868;2022-07-15T00:29:27;39.33;33.90;52.50;;
45478;Laerm;31227;47.986;11.868;2022-07-15T00:31:53;38.08;33.90;41.82;;
45478;Laerm;31227;47.986;11.868;2022-07-15T00:34:18;40.59;36.20;56.11;;
45478;Laerm;31227;47.986;11.868;2022-07-15T00:36:43;41.50;37.12;54.81;;
45478;Laerm;31227;47.986;11.868;2022-07-15T00:39:09;40.85;35.94;59.12;;
45478;Laerm;31227;47.986;11.868;2022-07-15T00:41:41;45.00;35.66;60.68;;
45478;Laerm;31227;47.986;11.868;2022-07-15T00:44:06;38.84;35.66;42.29;;
45478;Laerm;31227;47.986;11.868;2022-07-15T00:46:32;43.55;35.66;56.59;;
45478;Laerm;31227;47.986;11.868;2022-07-15T00:48:57;39.14;35.36;41.61;;
45478;Laerm;31227;47.986;11.868;2022-07-15T00:51:23;39.66;35.36;50.57;;
45478;Laerm;31227;47.986;11.868;2022-07-15T00:53:48;39.47;35.04;52.06;;
45478;Laerm;31227;47.986;11.868;2022-07-15T00:56:14;43.15;36.45;76.03;;
45478;Laerm;31227;47.986;11.868;2022-07-15T00:58:41;42.42;37.88;71.66;;
45478;Laerm;31227;47.986;11.868;2022-07-15T01:01:07;40.00;36.98;44.59;;
45478;Laerm;31227;47.986;11.868;2022-07-15T01:03:33;39.82;36.45;42.03;;
45478;Laerm;31227;47.986;11.868;2022-07-15T01:05:58;45.57;35.36;80.21;;
45478;Laerm;31227;47.986;11.868;2022-07-15T01:08:23;40.10;35.94;42.22;;
45478;Laerm;31227;47.986;11.868;2022-07-15T01:10:49;40.06;37.12;42.76;;
45478;Laerm;31227;47.986;11.868;2022-07-15T01:13:15;41.68;36.69;70.51;;
45478;Laerm;31227;47.986;11.868;2022-07-15T01:15:40;40.87;37.88;59.64;;
45478;Laerm;31227;47.986;11.868;2022-07-15T01:18:05;44.22;37.32;77.69;;
45478;Laerm;31227;47.986;11.868;2022-07-15T01:20:30;52.19;36.69;85.47;;
45478;Laerm;31227;47.986;11.868;2022-07-15T01:22:56;59.01;40.53;92.25;;
45478;Laerm;31227;47.986;11.868;2022-07-15T01:25:21;55.73;38.37;90.49;;
45478;Laerm;31227;47.986;11.868;2022-07-15T01:27:47;52.30;38.95;84.86;;
45478;Laerm;31227;47.986;11.868;2022-07-15T01:30:12;49.76;38.81;84.25;;
45478;Laerm;31227;47.986;11.868;2022-07-15T01:32:37;46.14;34.69;76.45;;
45478;Laerm;31227;47.986;11.868;2022-07-15T01:35:03;51.98;39.92;87.26;;
45478;Laerm;31227;47.986;11.868;2022-07-15T01:37:28;44.04;40.98;53.77;;
45478;Laerm;31227;47.986;11.868;2022-07-15T01:39:53;44.26;40.33;58.46;;
45478;Laerm;31227;47.986;11.868;2022-07-15T01:42:19;44.53;40.13;55.85;;
45478;Laerm;31227;47.986;11.868;2022-07-15T01:44:44;57.35;36.91;93.32;;
45478;Laerm;31227;47.986;11.868;2022-07-15T01:47:09;42.96;39.92;62.14;;
45478;Laerm;31227;47.986;11.868;2022-07-15T01:49:37;45.58;40.62;76.37;;
45478;Laerm;31227;47.986;11.868;2022-07-15T01:52:02;47.44;40.03;80.75;;
45478;Laerm;31227;47.986;11.868;2022-07-15T01:54:29;47.43;40.71;78.61;;
45478;Laerm;31227;47.986;11.868;2022-07-15T01:56:55;48.29;40.71;81.19;;
45478;Laerm;31227;47.986;11.868;2022-07-15T01:59:20;50.86;41.30;83.50;;
45478;Laerm;31227;47.986;11.868;2022-07-15T02:01:50;45.83;41.06;71.03;;
45478;Laerm;31227;47.986;11.868;2022-07-15T02:04:16;44.68;41.30;69.29;;
45478;Laerm;31227;47.986;11.868;2022-07-15T02:06:42;45.49;40.89;75.72;;
45478;Laerm;31227;47.986;11.868;2022-07-15T02:09:07;46.05;40.33;72.51;;
45478;Laerm;31227;47.986;11.868;2022-07-15T02:11:33;42.85;40.53;54.01;;
45478;Laerm;31227;47.986;11.868;2022-07-15T02:13:58;45.63;40.71;74.10;;
45478;Laerm;31227;47.986;11.868;2022-07-15T02:16:25;45.06;40.98;75.21;;
45478;Laerm;31227;47.986;11.868;2022-07-15T02:18:50;45.96;39.81;77.03;;
45478;Laerm;31227;47.986;11.868;2022-07-15T02:21:16;45.40;39.92;75.68;;
45478;Laerm;31227;47.986;11.868;2022-07-15T02:23:41;44.94;37.52;76.33;;
45478;Laerm;31227;47.986;11.868;2022-07-15T02:26:06;46.40;38.37;78.75;;
45478;Laerm;31227;47.986;11.868;2022-07-15T02:28:32;46.05;38.67;79.53;;
45478;Laerm;31227;47.986;11.868;2022-07-15T02:30:57;44.94;33.90;72.65;;
45478;Laerm;31227;47.986;11.868;2022-07-15T02:33:22;43.00;39.81;66.50;;
45478;Laerm;31227;47.986;11.868;2022-07-15T02:35:47;48.46;38.95;83.43;;
45478;Laerm;31227;47.986;11.868;2022-07-15T02:38:13;42.64;38.52;62.76;;
45478;Laerm;31227;47.986;11.868;2022-07-15T02:40:38;42.67;38.81;68.99;;
45478;Laerm;31227;47.986;11.868;2022-07-15T02:43:04;41.77;38.05;65.46;;
45478;Laerm;31227;47.986;11.868;2022-07-15T02:45:29;40.99;37.88;47.93;;
45478;Laerm;31227;47.986;11.868;2022-07-15T02:47:55;40.90;37.88;47.50;;
45478;Laerm;31227;47.986;11.868;2022-07-15T02:50:21;40.95;38.05;50.32;;
45478;Laerm;31227;47.986;11.868;2022-07-15T02:52:47;45.33;37.88;79.11;;
45478;Laerm;31227;47.986;11.868;2022-07-15T02:55:13;41.90;38.52;65.62;;
45478;Laerm;31227;47.986;11.868;2022-07-15T02:57:39;41.86;38.21;62.86;;
45478;Laerm;31227;47.986;11.868;2022-07-15T03:00:05;45.53;36.69;79.89;;
45478;Laerm;31227;47.986;11.868;2022-07-15T03:02:30;41.26;33.44;66.62;;
45478;Laerm;31227;47.986;11.868;2022-07-15T03:04:56;41.10;37.70;64.43;;
45478;Laerm;31227;47.986;11.868;2022-07-15T03:07:22;44.38;37.52;63.63;;
45478;Laerm;31227;47.986;11.868;2022-07-15T03:09:48;41.20;37.52;50.92;;
45478;Laerm;31227;47.986;11.868;2022-07-15T03:12:13;40.92;37.32;48.73;;
45478;Laerm;31227;47.986;11.868;2022-07-15T03:14:38;41.49;37.52;51.50;;
45478;Laerm;31227;47.986;11.868;2022-07-15T03:17:05;40.76;37.70;55.10;;
45478;Laerm;31227;47.986;11.868;2022-07-15T03:19:30;40.57;37.12;49.15;;
45478;Laerm;31227;47.986;11.868;2022-07-15T03:21:55;51.06;37.12;86.58;;
45478;Laerm;31227;47.986;11.868;2022-07-15T03:24:20;41.37;37.32;60.84;;
45478;Laerm;31227;47.986;11.868;2022-07-15T03:26:46;40.87;37.12;48.13;;
45478;Laerm;31227;47.986;11.868;2022-07-15T03:29:11;41.94;37.52;51.87;;
45478;Laerm;31227;47.986;11.868;2022-07-15T03:31:38;40.73;37.32;54.30;;
45478;Laerm;31227;47.986;11.868;2022-07-15T03:34:04;43.34;37.12;73.41;;
45478;Laerm;31227;47.986;11.868;2022-07-15T03:36:29;47.20;32.93;81.38;;
45478;Laerm;31227;47.986;11.868;2022-07-15T03:38:54;44.04;36.91;75.76;;
45478;Laerm;31227;47.986;11.868;2022-07-15T03:41:20;41.99;37.88;64.23;;
45478;Laerm;31227;47.986;11.868;2022-07-15T03:43:45;47.83;37.52;82.42;;
45478;Laerm;31227;47.986;11.868;2022-07-15T03:46:11;42.50;38.67;68.33;;
45478;Laerm;31227;47.986;11.868;2022-07-15T03:48:37;54.36;38.37;90.30;;
45478;Laerm;31227;47.986;11.868;2022-07-15T03:51:02;41.56;38.05;56.52;;
45478;Laerm;31227;47.986;11.868;2022-07-15T03:53:27;42.01;38.21;65.93;;
45478;Laerm;31227;47.986;11.868;2022-07-15T03:55:52;42.22;37.52;71.48;;
45478;Laerm;31227;47.986;11.868;2022-07-15T03:58:18;41.87;37.32;66.38;;
45478;Laerm;31227;47.986;11.868;2022-07-15T04:00:43;50.02;35.66;85.22;;
45478;Laerm;31227;47.986;11.868;2022-07-15T04:03:08;41.72;38.37;66.38;;
45478;Laerm;31227;47.986;11.868;2022-07-15T04:05:34;41.88;38.21;64.36;;
45478;Laerm;31227;47.986;11.868;2022-07-15T04:07:59;42.15;37.88;68.04;;
45478;Laerm;31227;47.986;11.868;2022-07-15T04:10:24;41.96;37.12;70.34;;
45478;Laerm;31227;47.986;11.868;2022-07-15T04:12:49;42.61;38.74;65.76;;
45478;Laerm;31227;47.986;11.868;2022-07-15T04:15:15;42.40;38.95;57.57;;
45478;Laerm;31227;47.986;11.868;2022-07-15T04:17:40;51.30;38.05;85.64;;
45478;Laerm;31227;47.986;11.868;2022-07-15T04:20:06;42.14;38.21;59.83;;
45478;Laerm;31227;47.986;11.868;2022-07-15T04:22:38;43.69;38.21;65.05;;
45478;Laerm;31227;47.986;11.868;2022-07-15T04:25:03;42.73;38.52;57.00;;
45478;Laerm;31227;47.986;11.868;2022-07-15T04:27:31;41.52;38.37;52.08;;
45478;Laerm;31227;47.986;11.868;2022-07-15T04:29:56;41.76;37.70;62.80;;
45478;Laerm;31227;47.986;11.868;2022-07-15T04:32:22;42.18;36.91;56.76;;
45478;Laerm;31227;47.986;11.868;2022-07-15T04:34:47;43.09;37.88;73.63;;
45478;Laerm;31227;47.986;11.868;2022-07-15T04:37:12;41.83;37.70;50.18;;
45478;Laerm;31227;47.986;11.868;2022-07-15T04:39:37;43.67;38.37;62.94;;
45478;Laerm;31227;47.986;11.868;2022-07-15T04:42:02;41.47;37.70;48.94;;
45478;Laerm;31227;47.986;11.868;2022-07-15T04:44:28;41.75;37.12;57.43;;
45478;Laerm;31227;47.986;11.868;2022-07-15T04:46:53;41.90;37.32;52.89;;
45478;Laerm;31227;47.986;11.868;2022-07-15T04:49:18;41.69;37.12;50.31;;
45478;Laerm;31227;47.986;11.868;2022-07-15T04:52:02;41.55;37.12;50.42;;
45478;Laerm;31227;47.986;11.868;2022-07-15T04:54:27;41.70;37.32;47.93;;
45478;Laerm;31227;47.986;11.868;2022-07-15T04:56:53;42.01;37.70;47.16;;
45478;Laerm;31227;47.986;11.868;2022-07-15T04:59:18;41.38;36.69;49.16;;
45478;Laerm;31227;47.986;11.868;2022-07-15T05:01:43;41.62;37.52;51.92;;
45478;Laerm;31227;47.986;11.868;2022-07-15T05:04:08;41.93;37.70;51.64;;
45478;Laerm;31227;47.986;11.868;2022-07-15T05:06:34;41.50;36.69;47.81;;
45478;Laerm;31227;47.986;11.868;2022-07-15T05:08:59;41.96;37.52;51.93;;
45478;Laerm;31227;47.986;11.868;2022-07-15T05:11:24;42.23;37.12;58.38;;
45478;Laerm;31227;47.986;11.868;2022-07-15T05:13:50;42.09;37.32;49.97;;
45478;Laerm;31227;47.986;11.868;2022-07-15T05:16:15;43.50;37.35;55.02;;
45478;Laerm;31227;47.986;11.868;2022-07-15T05:18:40;43.11;37.32;54.16;;
45478;Laerm;31227;47.986;11.868;2022-07-15T05:21:05;42.07;37.12;51.96;;
45478;Laerm;31227;47.986;11.868;2022-07-15T05:23:30;43.20;36.69;57.97;;
45478;Laerm;31227;47.986;11.868;2022-07-15T05:25:56;43.68;37.88;60.20;;
45478;Laerm;31227;47.986;11.868;2022-07-15T05:28:21;41.89;36.69;49.77;;
45478;Laerm;31227;47.986;11.868;2022-07-15T05:30:46;43.06;37.32;52.67;;
45478;Laerm;31227;47.986;11.868;2022-07-15T05:33:14;42.55;37.12;55.77;;
45478;Laerm;31227;47.986;11.868;2022-07-15T05:35:40;42.83;37.12;54.95;;
45478;Laerm;31227;47.986;11.868;2022-07-15T05:38:05;42.92;37.35;50.75;;
45478;Laerm;31227;47.986;11.868;2022-07-15T05:40:30;43.28;37.12;58.57;;
45478;Laerm;31227;47.986;11.868;2022-07-15T05:42:55;42.93;37.88;59.10;;
45478;Laerm;31227;47.986;11.868;2022-07-15T05:45:20;42.58;36.91;54.52;;
45478;Laerm;31227;47.986;11.868;2022-07-15T05:47:46;43.39;37.32;55.97;;
45478;Laerm;31227;47.986;11.868;2022-07-15T05:50:13;43.54;38.05;57.88;;
45478;Laerm;31227;47.986;11.868;2022-07-15T05:52:38;42.84;38.37;50.58;;
45478;Laerm;31227;47.986;11.868;2022-07-15T05:55:03;42.68;38.52;50.40;;
45478;Laerm;31227;47.986;11.868;2022-07-15T05:57:29;43.24;38.21;51.54;;
45478;Laerm;31227;47.986;11.868;2022-07-15T05:59:54;42.94;37.70;53.08;;
45478;Laerm;31227;47.986;11.868;2022-07-15T06:02:20;42.84;37.88;52.06;;
45478;Laerm;31227;47.986;11.868;2022-07-15T06:04:45;42.72;37.35;49.40;;
45478;Laerm;31227;47.986;11.868;2022-07-15T06:07:10;42.81;37.70;53.42;;
45478;Laerm;31227;47.986;11.868;2022-07-15T06:09:36;43.68;38.21;62.10;;
45478;Laerm;31227;47.986;11.868;2022-07-15T06:12:02;42.92;37.52;49.00;;
45478;Laerm;31227;47.986;11.868;2022-07-15T06:14:27;44.20;38.02;61.10;;
45478;Laerm;31227;47.986;11.868;2022-07-15T06:16:52;43.16;38.05;53.46;;
45478;Laerm;31227;47.986;11.868;2022-07-15T06:19:18;44.25;38.21;59.31;;
45478;Laerm;31227;47.986;11.868;2022-07-15T06:21:43;43.08;37.12;62.52;;
45478;Laerm;31227;47.986;11.868;2022-07-15T06:24:08;44.23;38.67;58.50;;
45478;Laerm;31227;47.986;11.868;2022-07-15T06:26:33;42.91;37.52;53.41;;
45478;Laerm;31227;47.986;11.868;2022-07-15T06:28:59;45.19;37.70;60.76;;
45478;Laerm;31227;47.986;11.868;2022-07-15T06:31:24;44.16;37.88;55.58;;
45478;Laerm;31227;47.986;11.868;2022-07-15T06:33:49;43.47;37.32;55.20;;
45478;Laerm;31227;47.986;11.868;2022-07-15T06:36:14;43.54;37.88;54.00;;
45478;Laerm;31227;47.986;11.868;2022-07-15T06:38:40;44.53;37.32;57.87;;
45478;Laerm;31227;47.986;11.868;2022-07-15T06:41:11;43.31;37.12;51.33;;
45478;Laerm;31227;47.986;11.868;2022-07-15T06:43:36;42.96;37.35;50.30;;
45478;Laerm;31227;47.986;11.868;2022-07-15T06:46:02;43.06;36.98;52.66;;
45478;Laerm;31227;47.986;11.868;2022-07-15T06:48:27;42.95;37.52;51.93;;
45478;Laerm;31227;47.986;11.868;2022-07-15T06:50:53;45.30;37.52;67.49;;
45478;Laerm;31227;47.986;11.868;2022-07-15T06:53:19;44.72;38.52;56.89;;
45478;Laerm;31227;47.986;11.868;2022-07-15T06:55:44;43.95;37.12;59.90;;
45478;Laerm;31227;47.986;11.868;2022-07-15T06:58:09;43.61;37.70;55.13;;
45478;Laerm;31227;47.986;11.868;2022-07-15T07:00:34;43.66;37.32;51.21;;
45478;Laerm;31227;47.986;11.868;2022-07-15T07:03:00;44.01;37.32;57.02;;
45478;Laerm;31227;47.986;11.868;2022-07-15T07:05:25;42.80;37.32;55.72;;
45478;Laerm;31227;47.986;11.868;2022-07-15T07:07:50;43.58;37.52;51.90;;
45478;Laerm;31227;47.986;11.868;2022-07-15T07:10:15;42.79;37.52;49.98;;
45478;Laerm;31227;47.986;11.868;2022-07-15T07:12:41;44.14;37.12;56.23;;
45478;Laerm;31227;47.986;11.868;2022-07-15T07:15:06;42.64;37.32;49.28;;
45478;Laerm;31227;47.986;11.868;2022-07-15T07:17:32;44.61;38.81;53.19;;
45478;Laerm;31227;47.986;11.868;2022-07-15T07:19:57;42.22;36.91;49.88;;
45478;Laerm;31227;47.986;11.868;2022-07-15T07:22:23;45.37;36.91;60.01;;
45478;Laerm;31227;47.986;11.868;2022-07-15T07:24:48;43.78;37.32;56.29;;
45478;Laerm;31227;47.986;11.868;2022-07-15T07:27:13;44.28;37.32;55.44;;
45478;Laerm;31227;47.986;11.868;2022-07-15T07:29:39;44.80;37.32;54.52;;
45478;Laerm;31227;47.986;11.868;2022-07-15T07:32:04;45.28;37.52;59.70;;
45478;Laerm;31227;47.986;11.868;2022-07-15T07:34:29;42.96;37.52;56.20;;
45478;Laerm;31227;47.986;11.868;2022-07-15T07:36:55;47.44;37.88;68.86;;
45478;Laerm;31227;47.986;11.868;2022-07-15T07:39:20;43.22;37.32;51.01;;
45478;Laerm;31227;47.986;11.868;2022-07-15T07:41:45;44.30;37.88;55.55;;
45478;Laerm;31227;47.986;11.868;2022-07-15T07:44:11;43.51;37.52;56.01;;
45478;Laerm;31227;47.986;11.868;2022-07-15T07:46:36;44.92;37.32;56.62;;
45478;Laerm;31227;47.986;11.868;2022-07-15T07:49:01;43.40;37.88;55.57;;
45478;Laerm;31227;47.986;11.868;2022-07-15T07:51:27;44.32;37.12;54.86;;
45478;Laerm;31227;47.986;11.868;2022-07-15T07:53:52;43.19;37.32;52.78;;
45478;Laerm;31227;47.986;11.868;2022-07-15T07:56:17;45.20;37.52;66.30;;
45478;Laerm;31227;47.986;11.868;2022-07-15T07:58:43;44.63;37.12;55.23;;
45478;Laerm;31227;47.986;11.868;2022-07-15T08:01:08;44.32;38.37;55.43;;
45478;Laerm;31227;47.986;11.868;2022-07-15T08:03:33;44.34;38.37;55.05;;
45478;Laerm;31227;47.986;11.868;2022-07-15T08:05:58;44.09;38.37;54.86;;
45478;Laerm;31227;47.986;11.868;2022-07-15T08:08:24;45.28;37.52;59.09;;
45478;Laerm;31227;47.986;11.868;2022-07-15T08:10:51;42.50;37.52;49.03;;
45478;Laerm;31227;47.986;11.868;2022-07-15T08:13:17;44.86;37.52;59.75;;
45478;Laerm;31227;47.986;11.868;2022-07-15T08:15:43;46.52;38.52;61.58;;
45478;Laerm;31227;47.986;11.868;2022-07-15T08:18:08;43.59;37.12;56.62;;
45478;Laerm;31227;47.986;11.868;2022-07-15T08:20:34;44.24;37.52;57.11;;
45478;Laerm;31227;47.986;11.868;2022-07-15T08:23:01;45.57;38.05;63.33;;
45478;Laerm;31227;47.986;11.868;2022-07-15T08:25:30;42.44;37.17;52.94;;
45478;Laerm;31227;47.986;11.868;2022-07-15T08:27:56;43.71;37.52;53.77;;
45478;Laerm;31227;47.986;11.868;2022-07-15T08:30:25;43.61;37.52;53.81;;
45478;Laerm;31227;47.986;11.868;2022-07-15T08:32:50;45.64;38.37;59.27;;
45478;Laerm;31227;47.986;11.868;2022-07-15T08:35:16;43.91;37.52;50.88;;
45478;Laerm;31227;47.986;11.868;2022-07-15T08:37:41;44.81;37.52;57.18;;
45478;Laerm;31227;47.986;11.868;2022-07-15T08:40:06;44.74;38.21;53.99;;
45478;Laerm;31227;47.986;11.868;2022-07-15T08:42:34;43.24;37.52;54.76;;
45478;Laerm;31227;47.986;11.868;2022-07-15T08:45:00;47.18;38.18;61.49;;
45478;Laerm;31227;47.986;11.868;2022-07-15T08:47:25;42.31;37.70;50.39;;
45478;Laerm;31227;47.986;11.868;2022-07-15T08:49:53;47.88;39.08;60.33;;
45478;Laerm;31227;47.986;11.868;2022-07-15T08:52:20;45.51;38.37;57.75;;
45478;Laerm;31227;47.986;11.868;2022-07-15T08:54:46;45.61;38.52;62.08;;
45478;Laerm;31227;47.986;11.868;2022-07-15T08:57:12;44.99;36.91;64.83;;
45478;Laerm;31227;47.986;11.868;2022-07-15T08:59:39;43.88;38.52;52.63;;
45478;Laerm;31227;47.986;11.868;2022-07-15T09:02:04;46.17;37.88;61.72;;
45478;Laerm;31227;47.986;11.868;2022-07-15T09:04:30;45.64;37.88;58.89;;
45478;Laerm;31227;47.986;11.868;2022-07-15T09:06:55;44.06;37.70;55.72;;
45478;Laerm;31227;47.986;11.868;2022-07-15T09:14:21;45.11;38.05;56.60;;
45478;Laerm;31227;47.986;11.868;2022-07-15T09:16:46;44.50;38.05;57.43;;
45478;Laerm;31227;47.986;11.868;2022-07-15T09:19:11;44.96;38.67;56.82;;
45478;Laerm;31227;47.986;11.868;2022-07-15T09:21:37;44.96;38.95;60.19;;
45478;Laerm;31227;47.986;11.868;2022-07-15T09:24:18;45.14;38.37;57.11;;
45478;Laerm;31227;47.986;11.868;2022-07-15T09:26:44;44.17;37.88;66.48;;
45478;Laerm;31227;47.986;11.868;2022-07-15T09:29:09;44.58;38.95;61.91;;
45478;Laerm;31227;47.986;11.868;2022-07-15T09:31:57;44.51;37.52;60.73;;
45478;Laerm;31227;47.986;11.868;2022-07-15T09:35:01;44.78;37.88;56.97;;
45478;Laerm;31227;47.986;11.868;2022-07-15T09:37:27;44.33;38.05;58.57;;
45478;Laerm;31227;47.986;11.868;2022-07-15T09:39:55;45.76;39.21;60.97;;
45478;Laerm;31227;47.986;11.868;2022-07-15T09:42:21;44.00;38.87;63.05;;
45478;Laerm;31227;47.986;11.868;2022-07-15T09:44:46;44.48;38.67;65.17;;
45478;Laerm;31227;47.986;11.868;2022-07-15T09:47:18;45.49;38.81;61.19;;
45478;Laerm;31227;47.986;11.868;2022-07-15T09:49:43;44.39;37.32;52.68;;
45478;Laerm;31227;47.986;11.868;2022-07-15T09:52:09;44.35;38.21;55.43;;
45478;Laerm;31227;47.986;11.868;2022-07-15T09:54:39;43.69;38.95;52.42;;
45478;Laerm;31227;47.986;11.868;2022-07-15T09:57:06;45.50;37.52;56.71;;
45478;Laerm;31227;47.986;11.868;2022-07-15T09:59:32;45.40;37.88;62.46;;
45478;Laerm;31227;47.986;11.868;2022-07-15T10:01:57;44.86;38.05;52.65;;
45478;Laerm;31227;47.986;11.868;2022-07-15T10:04:24;45.37;38.95;57.79;;
45478;Laerm;31227;47.986;11.868;2022-07-15T10:06:50;44.81;37.52;55.48;;
45478;Laerm;31227;47.986;11.868;2022-07-15T10:09:19;45.12;37.88;59.29;;
45478;Laerm;31227;47.986;11.868;2022-07-15T10:11:46;44.89;37.52;60.73;;
45478;Laerm;31227;47.986;11.868;2022-07-15T10:14:35;44.73;37.32;56.28;;
45478;Laerm;31227;47.986;11.868;2022-07-15T10:30:20;44.11;36.69;52.07;;
45478;Laerm;31227;47.986;11.868;2022-07-15T10:35:36;45.17;38.05;54.75;;
45478;Laerm;31227;47.986;11.868;2022-07-15T10:40:59;44.78;36.91;55.04;;
45478;Laerm;31227;47.986;11.868;2022-07-15T10:43:38;45.12;38.05;54.20;;
45478;Laerm;31227;47.986;11.868;2022-07-15T10:46:04;46.32;37.70;57.27;;
45478;Laerm;31227;47.986;11.868;2022-07-15T10:48:29;46.50;37.32;63.02;;
45478;Laerm;31227;47.986;11.868;2022-07-15T10:50:55;47.52;37.12;61.43;;
45478;Laerm;31227;47.986;11.868;2022-07-15T10:53:22;44.55;36.10;55.22;;
45478;Laerm;31227;47.986;11.868;2022-07-15T10:55:49;44.98;36.91;57.84;;
45478;Laerm;31227;47.986;11.868;2022-07-15T10:58:14;47.30;37.52;60.86;;
45478;Laerm;31227;47.986;11.868;2022-07-15T11:00:41;43.75;38.37;52.96;;
45478;Laerm;31227;47.986;11.868;2022-07-15T11:05:41;44.60;37.70;53.42;;
45478;Laerm;31227;47.986;11.868;2022-07-15T11:10:57;45.85;37.52;61.18;;
45478;Laerm;31227;47.986;11.868;2022-07-15T11:13:32;45.12;37.32;55.27;;
45478;Laerm;31227;47.986;11.868;2022-07-15T11:15:58;46.05;36.69;59.28;;
45478;Laerm;31227;47.986;11.868;2022-07-15T11:18:24;45.99;35.66;65.23;;
45478;Laerm;31227;47.986;11.868;2022-07-15T11:20:49;59.64;37.70;80.94;;
45478;Laerm;31227;47.986;11.868;2022-07-15T11:23:15;44.97;38.21;56.91;;
45478;Laerm;31227;47.986;11.868;2022-07-15T11:25:41;47.26;38.21;61.80;;
45478;Laerm;31227;47.986;11.868;2022-07-15T11:28:11;47.11;38.37;60.96;;
45478;Laerm;31227;47.986;11.868;2022-07-15T11:30:46;45.02;37.52;56.65;;
45478;Laerm;31227;47.986;11.868;2022-07-15T11:33:30;45.97;37.88;63.98;;
45478;Laerm;31227;47.986;11.868;2022-07-15T11:35:59;47.06;39.81;63.04;;
45478;Laerm;31227;47.986;11.868;2022-07-15T11:38:26;46.88;37.12;57.97;;
45478;Laerm;31227;47.986;11.868;2022-07-15T11:40:56;44.73;37.12;54.26;;
45478;Laerm;31227;47.986;11.868;2022-07-15T11:43:40;44.77;37.52;55.07;;
45478;Laerm;31227;47.986;11.868;2022-07-15T11:46:25;46.79;37.88;66.02;;
45478;Laerm;31227;47.986;11.868;2022-07-15T11:48:51;45.40;37.70;55.07;;
45478;Laerm;31227;47.986;11.868;2022-07-15T11:51:16;46.62;35.94;57.02;;
45478;Laerm;31227;47.986;11.868;2022-07-15T11:53:48;44.96;38.37;51.78;;
45478;Laerm;31227;47.986;11.868;2022-07-15T11:56:13;45.05;36.45;52.52;;
45478;Laerm;31227;47.986;11.868;2022-07-15T11:58:40;44.17;37.32;51.85;;
45478;Laerm;31227;47.986;11.868;2022-07-15T12:01:06;46.23;37.52;61.10;;
45478;Laerm;31227;47.986;11.868;2022-07-15T12:03:36;46.99;38.52;57.52;;
45478;Laerm;31227;47.986;11.868;2022-07-15T12:06:03;46.34;36.69;58.75;;
45478;Laerm;31227;47.986;11.868;2022-07-15T12:08:42;44.04;36.69;60.10;;
45478;Laerm;31227;47.986;11.868;2022-07-15T12:11:13;45.58;38.67;61.07;;
45478;Laerm;31227;47.986;11.868;2022-07-15T12:13:42;45.10;38.67;58.18;;
45478;Laerm;31227;47.986;11.868;2022-07-15T12:16:08;44.37;38.95;52.39;;
45478;Laerm;31227;47.986;11.868;2022-07-15T12:18:33;45.49;35.94;56.94;;
45478;Laerm;31227;47.986;11.868;2022-07-15T12:20:58;45.82;38.21;55.84;;
45478;Laerm;31227;47.986;11.868;2022-07-15T12:23:23;45.16;36.20;57.57;;
45478;Laerm;31227;47.986;11.868;2022-07-15T12:26:01;44.99;37.12;59.09;;
45478;Laerm;31227;47.986;11.868;2022-07-15T12:28:29;45.62;36.69;60.91;;
45478;Laerm;31227;47.986;11.868;2022-07-15T12:30:55;47.08;37.70;64.29;;
45478;Laerm;31227;47.986;11.868;2022-07-15T12:33:21;44.01;37.32;50.61;;
45478;Laerm;31227;47.986;11.868;2022-07-15T12:35:47;45.31;36.20;54.33;;
45478;Laerm;31227;47.986;11.868;2022-07-15T12:38:28;45.34;37.52;61.39;;
45478;Laerm;31227;47.986;11.868;2022-07-15T12:40:53;43.61;36.69;51.66;;
45478;Laerm;31227;47.986;11.868;2022-07-15T12:46:12;45.51;37.32;58.02;;
45478;Laerm;31227;47.986;11.868;2022-07-15T12:48:44;44.99;38.67;57.60;;
45478;Laerm;31227;47.986;11.868;2022-07-15T12:51:11;45.74;37.52;60.28;;
45478;Laerm;31227;47.986;11.868;2022-07-15T12:53:37;44.86;36.69;52.53;;
45478;Laerm;31227;47.986;11.868;2022-07-15T12:56:03;45.05;37.52;57.83;;
45478;Laerm;31227;47.986;11.868;2022-07-15T12:58:29;44.56;38.05;52.73;;
45478;Laerm;31227;47.986;11.868;2022-07-15T13:03:29;45.48;37.52;58.37;;
45478;Laerm;31227;47.986;11.868;2022-07-15T13:05:56;44.54;37.52;58.05;;
45478;Laerm;31227;47.986;11.868;2022-07-15T13:08:23;51.58;39.81;72.64;;
45478;Laerm;31227;47.986;11.868;2022-07-15T13:10:51;59.74;36.69;84.37;;
45478;Laerm;31227;47.986;11.868;2022-07-15T13:13:17;45.64;39.81;60.27;;
45478;Laerm;31227;47.986;11.868;2022-07-15T13:15:43;45.58;38.52;59.97;;
45478;Laerm;31227;47.986;11.868;2022-07-15T13:18:08;45.52;37.70;54.91;;
45478;Laerm;31227;47.986;11.868;2022-07-15T13:20:34;46.31;37.12;58.09;;
45478;Laerm;31227;47.986;11.868;2022-07-15T13:23:00;45.90;38.21;58.75;;
45478;Laerm;31227;47.986;11.868;2022-07-15T13:25:26;44.93;37.88;51.12;;
45478;Laerm;31227;47.986;11.868;2022-07-15T13:27:51;48.14;38.67;62.87;;
45478;Laerm;31227;47.986;11.868;2022-07-15T13:30:17;45.24;38.21;52.93;;
45478;Laerm;31227;47.986;11.868;2022-07-15T13:32:42;45.66;37.32;56.00;;
45478;Laerm;31227;47.986;11.868;2022-07-15T13:35:09;44.18;37.53;52.41;;
45478;Laerm;31227;47.986;11.868;2022-07-15T13:37:34;44.23;38.05;55.36;;
45478;Laerm;31227;47.986;11.868;2022-07-15T13:40:00;46.49;38.05;57.82;;
45478;Laerm;31227;47.986;11.868;2022-07-15T13:42:25;44.27;37.12;52.49;;
45478;Laerm;31227;47.986;11.868;2022-07-15T13:44:51;44.98;37.88;59.48;;
45478;Laerm;31227;47.986;11.868;2022-07-15T13:47:16;45.08;37.88;61.67;;
45478;Laerm;31227;47.986;11.868;2022-07-15T13:49:41;45.88;37.12;57.73;;
45478;Laerm;31227;47.986;11.868;2022-07-15T13:52:25;45.46;37.88;56.04;;
45478;Laerm;31227;47.986;11.868;2022-07-15T13:54:51;44.73;37.88;58.35;;
45478;Laerm;31227;47.986;11.868;2022-07-15T13:57:16;45.07;36.91;56.93;;
45478;Laerm;31227;47.986;11.868;2022-07-15T13:59:41;44.76;38.67;54.40;;
45478;Laerm;31227;47.986;11.868;2022-07-15T14:02:07;45.09;36.91;62.70;;